Nearby METAR Reports

 

EBAW - Antwerpen, Belgium
Distance from station: NW 22km
Updated: 2020-09-20 16:20
Clear
Clear
 Wind from NNE
Wind: NNE 13 km/h
Temperature: 25°C
Dew Point: 3°C
Humidity: 24%
Barometer: 1016 hPa
Summary: Clear
Visibility: greater than 10 km
2020/09/20 14:20 EBAW 201420Z 03007KT 350V070 CAVOK 25/03 Q1016 NOSIG
EBBR - Brussel, Belgium
Distance from station: SW 24km
Updated: 2020-09-20 16:20
Clear
Clear
 Wind from NE
Wind: NE 9 km/h
Temperature: 24°C
Dew Point: 5°C
Humidity: 29%
Barometer: 1016 hPa
Summary: Clear
Visibility: greater than 10 km
2020/09/20 14:20 EBBR 201420Z 05005KT CAVOK 24/05 Q1016 NOSIG
 
EBDT - Schaffen, Belgium
Distance from station: ESE 26km
Updated: 2020-09-20 16:25
Mostly cloudy
Mostly cloudy
 Wind from NE
Wind: NE 11 km/h
Temperature: 24°C
Dew Point: 6°C
Humidity: 31%
Barometer: 1015 hPa
Clouds: Mostly cloudy
Visibility: 10 km
Cloud details: Few Clouds 3353 m
Mostly cloudy 6401 m
2020/09/20 14:25 EBDT 201425Z AUTO 04006KT 9999 FEW110/// BKN210/// 24/06 Q1015 BLU
EBBE - Beauvechain, Belgium
Distance from station: S 36km
Updated: 2020-09-20 16:25
Clear
Clear
 Wind from NE
Wind: NE 13 km/h
Temperature: 24°C
Dew Point: 6°C
Humidity: 31%
Barometer: 1015 hPa
Clouds: Clear
Visibility: 10 km
2020/09/20 14:25 EBBE 201425Z AUTO 04007KT 9999 NCD 24/06 Q1015 BLU
 
EHWO - Woensdrecht Rnla, Netherlands
Distance from station: NNW 50km
Updated: 2020-09-20 16:25
Clear
Clear
 Wind from NNE
Wind: NNE 17 km/h
Temperature: 24°C
Dew Point: 7°C
Humidity: 34%
Barometer: 1016 hPa
Clouds: Clear
Visibility: 10 km
2020/09/20 14:25 EHWO 201425Z AUTO 03009KT 340V060 9999 NCD 24/07 Q1016 BLU
EBBL - Kleine-Brogel, Belgium
Distance from station: ENE 54km
Updated: 2020-09-20 16:25
Clear
Clear
 Wind from NNE
Wind: NNE 11 km/h
Temperature: 25°C
Dew Point: 6°C
Humidity: 30%
Barometer: 1016 hPa
Clouds: Clear
Visibility: 10 km
2020/09/20 14:25 EBBL 201425Z AUTO 03006KT 9999 NCD 25/06 Q1016 BLU
 
EHGR - Gilze-Rijen Rnla, Netherlands
Distance from station: NNE 57km
Updated: 2020-09-20 16:25
Partly cloudy
Partly cloudy
 Wind from NE
Wind: NE 15 km/h
Temperature: 24°C
Dew Point: 6°C
Humidity: 31%
Barometer: 1016 hPa
Clouds: Partly cloudy
Visibility: 10 km
Cloud details: Partly cloudy 10363 m
2020/09/20 14:25 EHGR 201425Z AUTO 05008KT 350V110 9999 SCT340 24/06 Q1016 BLU
EHEH - Eindhoven Rnlafb, Netherlands
Distance from station: NE 63km
Updated: 2020-09-20 16:25
Clear
Clear
 Wind from NE
Wind: NE 13 km/h
Temperature: 25°C
Dew Point: 5°C
Humidity: 28%
Barometer: 1016 hPa
Clouds: Clear
Visibility: 10 km
2020/09/20 14:25 EHEH 201425Z AUTO 05007KT 030V110 9999 NCD 25/05 Q1016 BLU NOSIG
 
EBCI - Charleroi, Belgium
Distance from station: SSW 70km
Updated: 2020-09-20 16:20
Clear
Clear
 Wind from NNE
Wind: NNE 15 km/h
Temperature: 25°C
Dew Point: 3°C
Humidity: 24%
Barometer: 1016 hPa
Summary: Clear
Visibility: greater than 10 km
2020/09/20 14:20 EBCI 201420Z 02008KT 340V060 CAVOK 25/03 Q1016 NOSIG
EBLG - Bierset, Belgium
Distance from station: SE 72km
Updated: 2020-09-20 16:20
Clear
Clear
 Wind from NNE
Wind: NNE 15 km/h
Temperature: 24°C
Dew Point: 6°C
Humidity: 31%
Barometer: 1016 hPa
Summary: Clear
Visibility: greater than 10 km
2020/09/20 14:20 EBLG 201420Z 02008KT 350V050 CAVOK 24/06 Q1016 NOSIG
Benelux Weer Netwerk cwop awekas hwa wcloud pwsweather wow wow